Time;durP1;ratioP1;P1;durP2;ratioP2;P2;SDS_P1;SDS_P2;PMS_P1;PMS_P2;Temp;Humidity;BMP_temperature;BMP_pressure;BME280_temperature;BME280_humidity;BME280_pressure;Samples;Min_cycle;Max_cycle;Signal;HPM_P1;HPM_P2
2024/02/04 00:01:36;;;;;;;4.15;2.40;;;;;;;8.19;70.90;100046.50;122879;1102;104393;-78
2024/02/04 00:04:07;;;;;;;3.43;2.17;;;;;;;8.21;70.28;100041.33;122838;1102;104312;-78
2024/02/04 00:06:38;;;;;;;3.10;2.10;;;;;;;8.25;70.18;100045.86;122842;1102;104258;-77
2024/02/04 00:09:10;;;;;;;3.05;1.85;;;;;;;8.30;70.37;100043.41;122801;1102;104264;-78
2024/02/04 00:11:41;;;;;;;2.40;1.70;;;;;;;8.33;70.22;100035.69;122795;1102;104370;-78
2024/02/04 00:14:12;;;;;;;3.30;1.83;;;;;;;8.34;69.88;100046.20;122775;1105;112257;-79
2024/02/04 00:16:43;;;;;;;3.63;1.90;;;;;;;8.37;69.83;100046.31;122835;1102;104368;-79
2024/02/04 00:19:14;;;;;;;4.10;2.07;;;;;;;8.40;69.63;100048.16;122875;1102;104389;-79
2024/02/04 00:21:46;;;;;;;4.40;2.17;;;;;;;8.44;70.24;100050.07;122777;1102;104294;-78
2024/02/04 00:24:18;;;;;;;3.15;2.10;;;;;;;8.45;69.42;100044.02;122925;1102;104255;-79
2024/02/04 00:26:50;;;;;;;2.70;2.17;;;;;;;8.47;70.12;100044.08;122911;1102;104280;-78
2024/02/04 00:29:21;;;;;;;3.70;2.33;;;;;;;8.46;69.26;100051.01;122880;1102;104299;-78
2024/02/04 00:31:53;;;;;;;3.87;2.03;;;;;;;8.44;69.11;100050.95;122969;1102;104348;-79
2024/02/04 00:34:24;;;;;;;4.00;2.60;;;;;;;8.44;69.95;100050.95;122860;1102;104280;-79
2024/02/04 00:36:56;;;;;;;4.30;2.27;;;;;;;8.43;69.32;100051.81;122850;1102;104354;-78
2024/02/04 00:39:27;;;;;;;3.80;2.27;;;;;;;8.42;69.64;100038.64;122773;1102;104731;-78
2024/02/04 00:41:58;;;;;;;4.13;2.37;;;;;;;8.42;69.25;100042.14;122772;1103;104341;-78
2024/02/04 00:44:29;;;;;;;3.63;2.40;;;;;;;8.43;69.24;100043.02;122816;1102;104333;-78
2024/02/04 00:47:01;;;;;;;3.50;2.00;;;;;;;8.43;69.32;100043.02;122830;1103;104297;-79
2024/02/04 00:49:32;;;;;;;3.83;2.47;;;;;;;8.44;69.27;100047.45;122772;1102;104254;-77
2024/02/04 00:52:03;;;;;;;4.13;2.50;;;;;;;8.45;69.45;100046.64;122893;1102;104325;-78
2024/02/04 00:54:34;;;;;;;4.23;2.30;;;;;;;8.48;69.64;100053.68;122753;1103;104316;-78
2024/02/04 00:57:06;;;;;;;2.97;2.20;;;;;;;8.50;69.40;100049.42;122846;1102;104357;-78
2024/02/04 00:59:38;;;;;;;3.45;1.80;;;;;;;8.53;68.95;100046.92;123045;1102;104306;-77
2024/02/04 01:02:09;;;;;;;2.87;1.60;;;;;;;8.56;69.08;100039.19;123050;1102;104290;-78
2024/02/04 01:04:40;;;;;;;1.73;1.40;;;;;;;8.57;69.61;100056.63;122738;1103;104357;-79
2024/02/04 01:07:11;;;;;;;4.57;1.87;;;;;;;8.59;69.36;100050.64;122909;1102;104367;-79
2024/02/04 01:09:42;;;;;;;2.83;1.90;;;;;;;8.63;68.69;100052.55;123072;1102;104294;-79
2024/02/04 01:12:14;;;;;;;3.93;1.87;;;;;;;8.67;68.80;100050.04;122868;1102;104280;-78
2024/02/04 01:14:45;;;;;;;2.00;1.60;;;;;;;8.70;68.66;100052.77;122872;1102;104297;-77
2024/02/04 01:17:16;;;;;;;2.33;1.60;;;;;;;8.72;68.45;100051.96;122827;1102;104322;-78
2024/02/04 01:19:47;;;;;;;4.13;2.77;;;;;;;8.74;69.11;100044.17;122853;1102;104616;-77
2024/02/04 01:22:18;;;;;;;2.70;1.80;;;;;;;8.75;68.82;100043.34;122857;1102;104255;-77
2024/02/04 01:24:50;;;;;;;1.50;1.40;;;;;;;8.76;68.88;100040.78;122922;1102;104325;-77
2024/02/04 01:27:21;;;;;;;2.37;1.67;;;;;;;8.77;68.02;100036.44;122942;1105;104631;-77
2024/02/04 01:29:53;;;;;;;3.37;1.97;;;;;;;8.80;68.99;100052.23;122842;1102;104225;-77
2024/02/04 01:32:24;;;;;;;2.97;1.90;;;;;;;8.81;68.12;100048.80;122877;1102;104235;-78
2024/02/04 01:34:55;;;;;;;3.80;1.80;;;;;;;8.82;68.91;100050.59;122784;1103;104338;-78
2024/02/04 01:37:27;;;;;;;2.87;1.80;;;;;;;8.83;68.17;100043.63;122949;1102;104351;-78
2024/02/04 01:39:58;;;;;;;3.17;1.70;;;;;;;8.85;68.47;100058.55;122927;1102;104742;-78
2024/02/04 01:42:30;;;;;;;3.35;2.00;;;;;;;8.85;68.58;100074.25;122996;1102;104409;-79
2024/02/04 01:45:01;;;;;;;3.63;2.50;;;;;;;8.87;67.91;100063.84;123105;1102;104284;-79
2024/02/04 01:47:34;;;;;;;3.20;2.07;;;;;;;8.84;68.98;100061.98;122842;1102;104373;-78
2024/02/04 01:50:07;;;;;;;3.00;1.93;;;;;;;8.78;68.45;100064.38;123003;1103;104620;-78
2024/02/04 01:52:40;;;;;;;3.27;2.13;;;;;;;8.71;69.10;100062.38;122991;1102;104364;-78
2024/02/04 01:55:12;;;;;;;2.72;1.85;;;;;;;8.64;68.61;100050.80;122961;1102;104357;-78
2024/02/04 01:57:44;;;;;;;3.37;2.37;;;;;;;8.60;68.71;100056.75;122861;1102;104368;-79
2024/02/04 02:00:16;;;;;;;1.97;1.73;;;;;;;8.55;68.95;100056.58;122837;1102;104798;-78
2024/02/04 02:02:49;;;;;;;4.07;2.30;;;;;;;8.51;69.46;100052.09;122762;1103;104492;-78
2024/02/04 02:05:21;;;;;;;3.00;1.90;;;;;;;8.52;69.51;100047.74;122897;1102;104657;-79
2024/02/04 02:07:52;;;;;;;3.43;2.00;;;;;;;8.51;69.05;100040.72;122925;1102;104290;-79
2024/02/04 02:10:24;;;;;;;5.43;1.93;;;;;;;8.49;68.89;100035.44;122831;1102;104309;-77
2024/02/04 02:13:03;;;;;;;3.13;1.97;;;;;;;8.49;68.93;100045.89;122847;1105;104287;-78
2024/02/04 02:15:39;;;;;;;2.97;1.80;;;;;;;8.48;68.95;100041.52;122734;1102;105490;-78
2024/02/04 02:18:16;;;;;;;2.50;1.80;;;;;;;8.49;69.60;100045.89;122897;1105;104277;-78
2024/02/04 02:21:11;;;;;;;2.97;2.03;;;;;;;8.48;69.28;100049.36;122784;1102;104261;-78
2024/02/04 02:23:55;;;;;;;2.63;2.00;;;;;;;8.47;69.56;100042.34;122875;1102;104269;-77
2024/02/04 02:26:26;;;;;;;2.67;1.80;;;;;;;8.48;69.62;100040.61;122794;1102;104291;-78
2024/02/04 02:28:58;;;;;;;3.10;1.90;;;;;;;8.48;69.28;100044.13;122803;1105;104393;-78
2024/02/04 02:31:29;;;;;;;3.37;1.90;;;;;;;8.49;68.80;100039.78;122770;1102;104287;-78
2024/02/04 02:34:00;;;;;;;3.13;1.80;;;;;;;8.49;69.57;100031.94;122786;1102;104338;-77
2024/02/04 02:36:38;;;;;;;3.03;1.70;;;;;;;8.49;69.17;100038.05;122883;1102;104277;-78
2024/02/04 02:39:14;;;;;;;3.30;2.10;;;;;;;8.49;69.15;100039.78;122741;1102;104402;-76
2024/02/04 02:41:48;;;;;;;2.77;2.10;;;;;;;8.49;69.00;100035.44;122804;1102;104380;-77
2024/02/04 02:44:21;;;;;;;4.17;2.67;;;;;;;8.47;68.87;100037.11;122823;1105;104270;-77
2024/02/04 02:46:53;;;;;;;5.95;3.30;;;;;;;8.48;69.43;100038.91;122978;1105;104355;-77
2024/02/04 02:49:25;;;;;;;5.15;2.70;;;;;;;8.47;68.77;100034.50;122901;1105;104296;-77
2024/02/04 02:51:56;;;;;;;3.53;2.20;;;;;;;8.44;69.30;100035.27;122893;1103;104424;-78
2024/02/04 02:54:27;;;;;;;2.97;2.33;;;;;;;8.44;69.38;100040.49;122782;1102;104345;-79
2024/02/04 02:56:58;;;;;;;3.53;2.10;;;;;;;8.42;68.71;100036.91;122849;1102;104367;-78
2024/02/04 02:59:30;;;;;;;3.93;2.00;;;;;;;8.42;68.80;100043.87;122812;1105;104377;-78
2024/02/04 03:02:02;;;;;;;3.00;2.00;;;;;;;8.40;68.65;100038.59;122789;1102;104284;-78
2024/02/04 03:04:33;;;;;;;2.80;1.97;;;;;;;8.40;69.28;100037.70;122787;1105;104332;-78
2024/02/04 03:07:05;;;;;;;4.13;1.90;;;;;;;8.39;68.79;100041.14;122817;1102;104418;-78
2024/02/04 03:09:36;;;;;;;3.17;2.10;;;;;;;8.39;68.71;100036.80;122749;1102;104336;-77
2024/02/04 03:12:08;;;;;;;3.47;2.00;;;;;;;8.38;68.76;100036.73;122819;1105;104319;-78
2024/02/04 03:14:40;;;;;;;5.23;1.90;;;;;;;8.37;68.70;100035.86;122853;1102;104283;-78
2024/02/04 03:17:12;;;;;;;3.20;1.90;;;;;;;8.36;68.56;100041.03;122808;1105;104300;-78
2024/02/04 03:19:44;;;;;;;3.23;2.20;;;;;;;8.38;68.43;100031.51;122703;1105;104322;-77
2024/02/04 03:22:16;;;;;;;3.50;2.00;;;;;;;8.38;68.70;100039.35;122787;1102;104220;-78
2024/02/04 03:24:47;;;;;;;4.03;2.30;;;;;;;8.36;68.56;100046.26;122800;1102;104290;-77
2024/02/04 03:27:19;;;;;;;4.40;2.20;;;;;;;8.33;68.85;100047.02;122897;1105;104377;-78
2024/02/04 03:29:51;;;;;;;4.77;2.40;;;;;;;8.28;68.00;100054.69;122926;1102;104334;-77
2024/02/04 03:32:22;;;;;;;3.83;2.33;;;;;;;8.22;68.47;100054.45;122739;1103;104411;-77
2024/02/04 03:34:53;;;;;;;4.07;2.37;;;;;;;8.18;68.70;100067.35;122797;1105;104358;-78
2024/02/04 03:37:24;;;;;;;6.27;2.50;;;;;;;8.15;68.02;100062.92;122748;1102;104287;-78
2024/02/04 03:39:56;;;;;;;4.00;2.60;;;;;;;8.12;68.11;100062.80;122776;1102;104306;-77
2024/02/04 03:42:27;;;;;;;5.73;2.60;;;;;;;8.08;68.54;100060.89;122792;1105;104326;-78
2024/02/04 03:44:58;;;;;;;4.37;2.50;;;;;;;8.00;68.33;100057.98;122784;1102;104639;-78
2024/02/04 03:47:30;;;;;;;5.90;2.73;;;;;;;7.93;68.33;100055.95;122800;1103;104380;-78
2024/02/04 03:50:01;;;;;;;4.60;2.60;;;;;;;7.86;68.23;100069.62;122844;1102;104395;-78
2024/02/04 03:52:32;;;;;;;4.30;2.60;;;;;;;7.77;67.93;100072.74;122969;1102;104290;-78
2024/02/04 03:55:04;;;;;;;3.20;2.50;;;;;;;7.69;67.92;100067.20;122849;1102;104747;-78
2024/02/04 03:57:36;;;;;;;3.83;2.47;;;;;;;7.61;67.69;100071.23;122697;1105;104293;-79
2024/02/04 04:00:12;;;;;;;5.80;2.90;;;;;;;7.55;67.95;100071.87;122855;1102;104332;-78
2024/02/04 04:02:43;;;;;;;3.97;2.30;;;;;;;7.53;67.78;100075.27;123054;1102;104396;-79
2024/02/04 04:05:15;;;;;;;3.77;2.40;;;;;;;7.52;67.64;100076.08;123050;1102;104309;-79
2024/02/04 04:07:46;;;;;;;3.65;2.40;;;;;;;7.56;67.77;100076.27;123060;1102;104390;-78
2024/02/04 04:10:17;;;;;;;5.83;2.50;;;;;;;7.63;67.07;100073.91;122924;1102;104392;-79
2024/02/04 04:12:48;;;;;;;4.10;2.10;;;;;;;7.69;67.28;100061.98;123092;1102;104365;-80
2024/02/04 04:15:22;;;;;;;3.55;2.20;;;;;;;7.74;66.98;100059.56;122866;1102;104390;-79
2024/02/04 04:17:53;;;;;;;3.97;2.13;;;;;;;7.77;67.15;100059.68;122962;1102;104201;-79
2024/02/04 04:20:25;;;;;;;3.65;2.10;;;;;;;7.77;66.85;100054.45;122838;1102;104319;-79
2024/02/04 04:22:56;;;;;;;4.50;2.55;;;;;;;7.79;67.09;100051.91;122780;1102;104357;-79
2024/02/04 04:25:27;;;;;;;4.47;2.10;;;;;;;7.80;67.32;100057.19;122766;1102;104210;-78
2024/02/04 04:27:58;;;;;;;4.07;2.03;;;;;;;7.81;66.85;100061.59;122736;1105;104453;-79
2024/02/04 04:30:29;;;;;;;4.23;2.40;;;;;;;7.80;66.45;100074.59;122837;1102;104313;-79
2024/02/04 04:33:00;;;;;;;2.77;2.10;;;;;;;7.78;66.60;100071.92;122857;1102;104382;-79
2024/02/04 04:35:32;;;;;;;6.77;2.60;;;;;;;7.73;66.60;100073.47;122870;1102;104395;-80
2024/02/04 04:38:03;;;;;;;4.03;2.47;;;;;;;7.66;66.44;100061.86;122995;1102;104830;-79
2024/02/04 04:40:34;;;;;;;3.70;2.27;;;;;;;7.60;66.14;100061.61;122898;1102;104374;-79
2024/02/04 04:43:06;;;;;;;4.97;2.40;;;;;;;7.52;66.58;100058.69;122950;1102;104239;-79
2024/02/04 04:45:37;;;;;;;4.10;2.50;;;;;;;7.47;66.41;100052.40;122851;1102;104399;-79
2024/02/04 04:48:09;;;;;;;2.47;2.00;;;;;;;7.40;66.51;100058.19;122748;1102;104386;-78
2024/02/04 04:50:40;;;;;;;3.00;2.20;;;;;;;7.35;66.32;100055.41;122838;1102;104264;-78
2024/02/04 04:53:11;;;;;;;5.50;2.37;;;;;;;7.28;66.72;100058.58;122745;1105;104431;-79
2024/02/04 04:55:43;;;;;;;3.23;2.33;;;;;;;7.24;66.49;100053.17;122807;1102;104363;-78
2024/02/04 04:58:14;;;;;;;3.77;2.40;;;;;;;7.18;66.45;100053.80;122842;1105;104364;-78
2024/02/04 05:00:45;;;;;;;3.15;2.50;;;;;;;7.11;66.69;100054.37;122766;1102;104370;-78
2024/02/04 05:03:16;;;;;;;4.65;2.75;;;;;;;7.04;66.50;100054.94;122834;1102;104284;-78
2024/02/04 05:05:47;;;;;;;5.47;2.90;;;;;;;6.96;66.38;100049.39;122718;1102;104283;-78
2024/02/04 05:08:19;;;;;;;3.87;2.67;;;;;;;6.93;66.54;100054.47;122755;1102;104255;-78
2024/02/04 05:10:50;;;;;;;5.55;2.95;;;;;;;6.87;66.61;100047.27;122831;1102;104259;-78
2024/02/04 05:13:21;;;;;;;4.97;2.90;;;;;;;6.86;66.51;100053.33;122748;1105;104348;-78
2024/02/04 05:15:52;;;;;;;3.75;2.60;;;;;;;6.87;66.34;100056.81;122758;1102;104393;-78
2024/02/04 05:18:26;;;;;;;5.23;2.73;;;;;;;6.83;66.56;100067.11;122806;1102;104734;-78
2024/02/04 05:20:57;;;;;;;4.53;2.83;;;;;;;6.78;66.70;100066.03;122728;1102;104248;-78
2024/02/04 05:23:29;;;;;;;6.05;2.80;;;;;;;6.73;66.83;100082.28;122696;1102;104415;-78
2024/02/04 05:26:03;;;;;;;3.65;2.60;;;;;;;6.68;66.57;100084.69;122776;1102;104322;-78
2024/02/04 05:28:32;;;;;;;;;;;;;;;6.64;66.71;100088.00;122770;1103;104289;-78
2024/02/04 05:31:05;;;;;;;5.27;2.83;;;;;;;6.58;66.40;100087.73;122782;1102;104281;-79
2024/02/04 05:33:36;;;;;;;4.60;2.33;;;;;;;6.54;66.65;100088.40;122762;1102;104261;-78
2024/02/04 05:36:08;;;;;;;3.85;2.30;;;;;;;6.50;66.77;100089.98;122874;1102;104402;-78
2024/02/04 05:38:39;;;;;;;6.00;2.60;;;;;;;6.48;67.04;100082.09;122696;1102;104339;-78
2024/02/04 05:41:10;;;;;;;3.80;2.40;;;;;;;6.47;67.07;100088.12;122811;1102;104632;-79
2024/02/04 05:43:42;;;;;;;5.10;2.50;;;;;;;6.48;66.79;100083.78;122786;1102;104286;-78
2024/02/04 05:46:15;;;;;;;3.93;2.20;;;;;;;6.51;66.72;100086.53;122804;1102;104280;-78
2024/02/04 05:48:47;;;;;;;6.13;2.70;;;;;;;6.54;66.96;100085.79;122869;1105;104267;-77
2024/02/04 05:51:18;;;;;;;4.67;2.57;;;;;;;6.56;67.12;100081.53;122745;1102;104338;-83
2024/02/04 05:53:50;;;;;;;4.93;2.60;;;;;;;6.58;67.25;100072.96;122770;1102;104271;-78
2024/02/04 05:56:21;;;;;;;5.20;2.60;;;;;;;6.62;67.11;100079.20;122765;1102;104367;-78
2024/02/04 05:58:52;;;;;;;2.90;2.40;;;;;;;6.66;67.44;100081.13;122788;1102;104254;-79
2024/02/04 06:01:23;;;;;;;7.15;2.65;;;;;;;6.68;66.96;100074.26;122817;1102;104712;-78
2024/02/04 06:03:54;;;;;;;5.20;2.73;;;;;;;6.71;67.28;100078.73;122737;1102;104274;-78
2024/02/04 06:06:26;;;;;;;6.57;2.83;;;;;;;6.72;67.27;100073.58;122865;1102;104258;-79
2024/02/04 06:08:58;;;;;;;6.20;3.07;;;;;;;6.78;67.46;100065.15;122838;1102;104357;-78
2024/02/04 06:11:29;;;;;;;5.03;2.77;;;;;;;6.85;67.44;100069.78;122919;1102;104383;-80
2024/02/04 06:14:00;;;;;;;5.07;2.70;;;;;;;6.93;67.31;100072.73;122930;1102;104355;-79
2024/02/04 06:16:34;;;;;;;4.77;2.70;;;;;;;7.03;67.51;100074.92;122764;1105;104369;-79
2024/02/04 06:19:06;;;;;;;6.15;2.60;;;;;;;7.13;67.35;100074.47;122864;1102;105840;-79
2024/02/04 06:21:38;;;;;;;6.93;2.80;;;;;;;7.23;67.69;100067.03;122945;1105;104315;-79
2024/02/04 06:24:09;;;;;;;3.53;2.60;;;;;;;7.32;67.45;100060.50;122880;1102;104261;-78
2024/02/04 06:26:41;;;;;;;5.20;2.67;;;;;;;7.44;67.38;100067.05;123033;1102;104389;-78
2024/02/04 06:29:13;;;;;;;6.20;3.10;;;;;;;7.58;67.60;100062.40;123011;1102;104367;-77
2024/02/04 06:31:46;;;;;;;6.40;2.80;;;;;;;7.70;67.40;100057.67;122837;1104;104611;-80
2024/02/04 06:34:18;;;;;;;4.95;2.87;;;;;;;7.77;67.59;100067.52;122853;1105;104303;-78
2024/02/04 06:36:49;;;;;;;4.03;2.43;;;;;;;7.80;67.26;100059.80;123105;1102;104257;-78
2024/02/04 06:39:20;;;;;;;5.53;2.57;;;;;;;7.89;67.54;100068.00;123155;1102;104342;-77
2024/02/04 06:41:51;;;;;;;3.10;2.13;;;;;;;7.99;67.27;100053.57;123031;1102;104434;-78
2024/02/04 06:44:22;;;;;;;6.80;2.73;;;;;;;8.07;67.56;100051.26;123137;1102;104316;-78
2024/02/04 06:46:53;;;;;;;5.17;2.67;;;;;;;8.12;67.65;100054.96;123068;1102;104663;-78
2024/02/04 06:49:25;;;;;;;4.33;2.77;;;;;;;8.16;67.62;100042.89;123023;1100;104210;-78
2024/02/04 06:51:57;;;;;;;4.87;2.70;;;;;;;8.22;67.50;100045.73;122994;1102;118453;-78
2024/02/04 06:54:28;;;;;;;7.23;3.07;;;;;;;8.27;67.64;100042.48;122861;1102;104386;-79
2024/02/04 06:56:59;;;;;;;5.43;2.63;;;;;;;8.32;67.05;100032.19;122951;1102;104383;-78
2024/02/04 06:59:31;;;;;;;3.90;2.60;;;;;;;8.38;67.20;100041.97;122895;1102;104316;-81
2024/02/04 07:02:02;;;;;;;4.40;2.37;;;;;;;8.48;66.97;100038.91;122815;1103;104246;-77
2024/02/04 07:04:33;;;;;;;4.17;2.40;;;;;;;8.60;67.84;100049.81;122841;1102;104378;-79
2024/02/04 07:07:04;;;;;;;3.80;2.03;;;;;;;8.71;67.47;100041.45;122903;1102;104520;-77
2024/02/04 07:09:35;;;;;;;4.77;2.27;;;;;;;8.82;67.45;100045.36;122890;1102;104316;-78
2024/02/04 07:12:08;;;;;;;3.70;2.10;;;;;;;8.91;67.61;100027.37;122799;1102;105503;-78
2024/02/04 07:14:39;;;;;;;3.43;1.93;;;;;;;9.00;67.52;100030.27;122864;1102;104692;-79
2024/02/04 07:17:11;;;;;;;5.80;2.50;;;;;;;9.09;67.35;100026.21;122821;1102;104356;-79
2024/02/04 07:19:42;;;;;;;3.50;2.07;;;;;;;9.19;66.77;100023.05;122842;1102;104322;-79
2024/02/04 07:22:14;;;;;;;2.93;2.00;;;;;;;9.27;67.07;100011.13;122791;1102;104261;-81
2024/02/04 07:24:45;;;;;;;4.23;1.97;;;;;;;9.35;66.94;100001.78;122885;1102;104402;-78
2024/02/04 07:27:16;;;;;;;4.13;1.90;;;;;;;9.44;66.79;100009.06;122792;1105;104221;-78
2024/02/04 07:29:48;;;;;;;5.45;2.25;;;;;;;9.54;67.33;100007.61;122913;1103;104386;-78
2024/02/04 07:32:20;;;;;;;4.17;2.03;;;;;;;9.63;66.67;99999.14;122820;1106;104357;-77
2024/02/04 07:34:52;;;;;;;4.23;1.70;;;;;;;9.71;66.07;100001.17;122854;1102;104280;-79
2024/02/04 07:37:23;;;;;;;4.30;2.00;;;;;;;9.82;65.71;100005.86;122780;1102;104377;-79
2024/02/04 07:39:54;;;;;;;4.70;1.80;;;;;;;9.90;66.17;100004.36;122894;1102;104331;-78
2024/02/04 07:42:25;;;;;;;2.67;1.50;;;;;;;9.98;64.55;100004.59;122952;1102;104271;-79
2024/02/04 07:44:57;;;;;;;1.65;1.40;;;;;;;10.07;65.57;99997.88;122902;1102;104229;-79
2024/02/04 07:47:28;;;;;;;2.90;1.70;;;;;;;10.17;65.56;100000.78;122764;1102;104338;-78
2024/02/04 07:49:59;;;;;;;2.33;1.33;;;;;;;10.22;63.37;100014.90;122825;1102;104360;-79
2024/02/04 07:52:30;;;;;;;4.27;1.70;;;;;;;10.29;64.44;100014.25;123005;1102;105605;-79
2024/02/04 07:55:01;;;;;;;2.70;1.60;;;;;;;10.33;64.23;100010.91;122862;1102;104284;-78
2024/02/04 07:57:33;;;;;;;3.40;1.67;;;;;;;10.38;64.49;100017.17;122888;1102;104310;-78
2024/02/04 08:00:06;;;;;;;3.30;1.90;;;;;;;10.40;63.64;100010.22;123107;1101;104280;-78
2024/02/04 08:02:44;;;;;;;3.90;1.77;;;;;;;10.42;63.85;100012.89;123136;1102;104251;-79
2024/02/04 08:05:17;;;;;;;3.00;2.10;;;;;;;10.45;64.14;100012.98;122830;1102;104270;-77
2024/02/04 08:07:49;;;;;;;2.40;1.57;;;;;;;10.47;63.25;100011.31;122941;1102;104175;-78
2024/02/04 08:10:20;;;;;;;2.07;1.47;;;;;;;10.52;63.17;100016.69;122753;1102;104393;-77
2024/02/04 08:12:53;;;;;;;4.00;1.93;;;;;;;10.57;62.61;100020.31;122886;1102;104238;-78
2024/02/04 08:15:24;;;;;;;3.87;1.80;;;;;;;10.61;62.93;100016.91;122891;1105;104367;-78
2024/02/04 08:17:55;;;;;;;3.93;1.60;;;;;;;10.70;62.84;100016.29;122925;1105;104338;-78
2024/02/04 08:20:26;;;;;;;2.75;1.90;;;;;;;10.83;62.27;100021.04;122962;1103;104274;-78
2024/02/04 08:22:58;;;;;;;4.50;1.70;;;;;;;10.89;62.78;100020.30;122875;1102;104680;-78
2024/02/04 08:25:29;;;;;;;3.00;1.87;;;;;;;10.96;62.41;100025.75;122793;1102;104274;-79
2024/02/04 08:28:01;;;;;;;4.93;2.10;;;;;;;10.99;62.17;100024.95;122874;1102;104249;-79
2024/02/04 08:30:32;;;;;;;3.17;1.90;;;;;;;11.02;61.31;100029.41;122956;1105;104313;-78
2024/02/04 08:33:03;;;;;;;3.73;1.90;;;;;;;11.05;59.46;100042.62;122823;1105;104295;-78
2024/02/04 08:35:34;;;;;;;4.20;1.83;;;;;;;11.09;61.25;100036.58;122725;1105;104406;-78
2024/02/04 08:38:06;;;;;;;2.17;1.60;;;;;;;11.27;61.34;100033.55;122870;1102;104299;-77
2024/02/04 08:40:37;;;;;;;2.57;1.87;;;;;;;11.41;61.41;100036.52;122925;1101;104355;-76
2024/02/04 08:43:08;;;;;;;5.10;2.27;;;;;;;11.46;61.42;100045.40;122727;1102;104252;-76
2024/02/04 08:45:39;;;;;;;5.93;2.33;;;;;;;11.44;61.28;100042.73;122824;1102;104412;-78
2024/02/04 08:48:11;;;;;;;7.90;2.70;;;;;;;11.42;61.46;100049.70;122932;1105;104566;-77
2024/02/04 08:50:42;;;;;;;7.03;2.67;;;;;;;11.42;61.21;100044.44;123083;1105;104252;-79
2024/02/04 08:53:13;;;;;;;5.80;2.80;;;;;;;11.58;60.87;100045.70;122830;1103;104261;-78
2024/02/04 08:55:45;;;;;;;9.00;2.93;;;;;;;11.76;61.11;100052.23;122821;1102;104335;-78
2024/02/04 08:58:16;;;;;;;5.40;2.80;;;;;;;11.88;61.25;100053.41;122893;1102;104686;-78
2024/02/04 09:00:47;;;;;;;5.00;2.70;;;;;;;11.98;60.61;100058.91;122859;1102;104958;-77
2024/02/04 09:03:18;;;;;;;6.23;2.47;;;;;;;12.08;61.06;100055.66;122851;1102;104476;-77
2024/02/04 09:05:49;;;;;;;8.03;4.20;;;;;;;12.19;60.70;100054.14;122751;1102;104281;-78
2024/02/04 09:08:21;;;;;;;6.50;2.77;;;;;;;12.28;60.00;100055.19;122964;1102;104233;-78
2024/02/04 09:10:52;;;;;;;4.03;2.07;;;;;;;12.42;59.82;100053.77;122861;1102;104302;-78
2024/02/04 09:13:23;;;;;;;3.33;2.00;;;;;;;12.56;60.55;100054.05;122819;1102;104374;-78
2024/02/04 09:15:54;;;;;;;3.87;1.70;;;;;;;12.67;58.81;100056.87;122969;1102;104325;-78
2024/02/04 09:18:26;;;;;;;2.43;1.70;;;;;;;12.62;58.00;100048.91;123035;1102;104252;-78
2024/02/04 09:20:57;;;;;;;3.33;2.27;;;;;;;12.61;57.78;100052.39;122952;1102;104358;-78
2024/02/04 09:23:28;;;;;;;3.57;2.17;;;;;;;12.63;57.91;100055.93;122816;1102;104302;-78
2024/02/04 09:25:59;;;;;;;3.93;1.63;;;;;;;12.66;57.69;100053.36;122785;1102;104280;-78
2024/02/04 09:28:30;;;;;;;2.97;1.73;;;;;;;12.61;55.98;100051.52;122930;1102;104358;-78
2024/02/04 09:31:01;;;;;;;2.65;2.15;;;;;;;12.56;56.26;100048.78;122781;1102;104275;-77
2024/02/04 09:33:32;;;;;;;3.23;1.90;;;;;;;12.53;55.58;100044.34;122941;1102;104651;-77
2024/02/04 09:36:04;;;;;;;6.27;2.13;;;;;;;12.55;56.96;100039.11;122842;1105;104307;-79
2024/02/04 09:38:35;;;;;;;5.10;2.30;;;;;;;12.58;55.72;100040.05;123001;1102;104357;-78
2024/02/04 09:41:06;;;;;;;2.93;1.70;;;;;;;12.59;54.93;100035.69;122925;1102;104319;-77
2024/02/04 09:43:38;;;;;;;6.63;1.87;;;;;;;12.62;53.26;100048.00;122854;1102;104255;-78
2024/02/04 09:46:10;;;;;;;2.57;1.50;;;;;;;12.56;55.00;100036.50;122886;1105;104367;-79
2024/02/04 09:48:43;;;;;;;2.20;1.80;;;;;;;12.52;54.65;100026.76;122987;1102;104383;-79
2024/02/04 09:51:15;;;;;;;3.37;1.80;;;;;;;12.48;53.27;100031.93;123004;1102;104281;-78
2024/02/04 09:53:51;;;;;;;3.20;2.10;;;;;;;12.46;53.50;100023.13;122928;1105;105627;-78
2024/02/04 09:56:26;;;;;;;4.80;1.93;;;;;;;12.47;52.84;100017.89;123048;1102;104290;-78
2024/02/04 09:58:58;;;;;;;1.90;1.67;;;;;;;12.44;53.61;100023.09;122999;1102;104354;-78
2024/02/04 10:01:29;;;;;;;6.27;1.77;;;;;;;12.42;54.11;100009.03;122910;1103;104315;-78
2024/02/04 10:04:01;;;;;;;5.57;1.90;;;;;;;12.45;54.10;100014.36;123124;1102;104360;-78
2024/02/04 10:06:32;;;;;;;3.47;2.00;;;;;;;12.45;52.29;100006.46;122972;1105;104284;-78
2024/02/04 10:09:04;;;;;;;3.17;1.80;;;;;;;12.40;53.33;100000.20;123014;1103;104300;-79
2024/02/04 10:11:35;;;;;;;6.37;2.03;;;;;;;12.37;53.44;99995.78;123096;1102;104402;-79
2024/02/04 10:14:07;;;;;;;2.73;1.90;;;;;;;12.30;52.88;99980.71;122841;1102;104293;-79
2024/02/04 10:16:43;;;;;;;3.33;1.63;;;;;;;12.31;53.64;99985.13;122882;1102;104377;-78
2024/02/04 10:19:14;;;;;;;4.30;2.00;;;;;;;12.38;53.70;99991.39;123030;1105;104809;-78
2024/02/04 10:21:45;;;;;;;2.60;1.77;;;;;;;12.40;53.32;99974.80;122828;1103;104220;-79
2024/02/04 10:24:16;;;;;;;3.37;1.90;;;;;;;12.41;53.13;99966.02;122834;1101;104313;-79
2024/02/04 10:26:49;;;;;;;4.97;1.70;;;;;;;12.41;53.16;99965.14;122891;1102;104306;-79
2024/02/04 10:29:22;;;;;;;4.40;2.20;;;;;;;12.38;53.05;99973.85;122918;1102;104444;-80
2024/02/04 10:31:57;;;;;;;4.83;2.00;;;;;;;12.44;53.42;99965.20;122889;1102;104278;-79
2024/02/04 10:34:30;;;;;;;5.07;2.27;;;;;;;12.52;52.88;99958.34;122896;1102;104189;-79
2024/02/04 10:37:02;;;;;;;5.75;2.10;;;;;;;12.51;52.51;99967.11;123024;1102;104405;-78
2024/02/04 10:39:33;;;;;;;3.50;2.20;;;;;;;12.48;53.29;99961.79;122894;1102;104405;-78
2024/02/04 10:42:05;;;;;;;2.80;2.13;;;;;;;12.47;54.01;99960.00;122872;1102;104386;-78
2024/02/04 10:44:40;;;;;;;4.10;2.00;;;;;;;12.45;53.87;99969.63;123318;1106;104360;-78
2024/02/04 10:47:15;;;;;;;2.90;2.17;;;;;;;12.48;53.21;99967.05;122926;1102;104313;-78
2024/02/04 10:49:53;;;;;;;3.87;2.33;;;;;;;12.54;52.82;99955.73;123063;1105;104264;-78
2024/02/04 10:52:27;;;;;;;5.20;2.00;;;;;;;12.51;53.24;99950.41;123180;1102;104360;-78
2024/02/04 10:54:59;;;;;;;4.67;2.10;;;;;;;12.53;53.91;99944.33;122957;1102;104750;-77
2024/02/04 10:57:30;;;;;;;4.40;2.20;;;;;;;12.65;52.76;99932.25;123055;1102;104348;-78
2024/02/04 11:00:08;;;;;;;2.70;2.10;;;;;;;12.80;53.69;99929.89;122868;1102;104409;-79
2024/02/04 11:02:42;;;;;;;3.43;2.00;;;;;;;12.84;53.20;99922.92;123044;1101;104678;-77
2024/02/04 11:05:13;;;;;;;;;;;;;;;12.86;52.76;99915.95;123332;1102;104287;-76
2024/02/04 11:07:46;;;;;;;3.27;2.00;;;;;;;12.93;54.14;99913.45;122837;1102;104418;-77
2024/02/04 11:10:19;;;;;;;3.17;2.10;;;;;;;13.00;53.63;99914.44;122825;1102;104284;-79
2024/02/04 11:12:50;;;;;;;3.00;1.97;;;;;;;13.02;52.75;99902.16;123063;1102;104711;-78
2024/02/04 11:15:28;;;;;;;2.13;1.47;;;;;;;13.05;53.31;99918.02;122764;1102;104402;-77
2024/02/04 11:18:31;;;;;;;5.27;2.33;;;;;;;13.15;53.22;99907.63;122983;1105;104349;-78
2024/02/04 11:21:20;;;;;;;6.80;3.37;;;;;;;13.19;53.03;99915.61;122949;1102;104447;-81
2024/02/04 11:24:06;;;;;;;6.17;2.73;;;;;;;13.21;53.24;99913.88;123129;1102;104339;-78
2024/02/04 11:26:40;;;;;;;9.53;3.90;;;;;;;13.20;52.84;99906.86;122802;1102;104383;-78
2024/02/04 11:29:12;;;;;;;6.45;4.10;;;;;;;13.27;52.59;99908.70;123172;1102;104315;-78
2024/02/04 11:31:43;;;;;;;4.07;2.60;;;;;;;13.27;52.45;99911.33;123045;1102;104176;-78
2024/02/04 11:34:15;;;;;;;5.83;3.33;;;;;;;13.19;52.26;99902.44;122914;1102;104813;-78
2024/02/04 11:36:48;;;;;;;6.80;4.33;;;;;;;13.11;51.57;99904.08;122933;1102;104286;-78
2024/02/04 11:39:22;;;;;;;14.07;6.63;;;;;;;13.02;51.96;99910.06;122918;1102;104410;-78